Terminal Aerodrome Forecast
Issued by NWS

Home | Current Version | Previous Version | Text Only | Print | Product List | Glossary On
Versions: 1 2 3 4 5 6 7 8 9 10 11 12 13 14 15
000
FTAK31 PAFA 252351 CCA
TAFAOR
TAF COR
PAOR 252351Z 2600/2624 32008KT P6SM BKN025 OVC035
     FM261200 VRB03KT 6SM -SN BR BKN025 OVC035=

USA.gov is the U.S. government's official web portal to all federal, state and local government web resources and services.